sensor_id;sensor_type;location;lat;lon;timestamp;temperature;humidity
29341;DHT22;16337;59.536;13.468;2022-12-07T00:02:19;-4.70;99.90
29341;DHT22;16337;59.536;13.468;2022-12-07T00:04:44;-4.60;99.90
29341;DHT22;16337;59.536;13.468;2022-12-07T00:07:10;-4.70;99.90
29341;DHT22;16337;59.536;13.468;2022-12-07T00:09:36;-4.70;99.90
29341;DHT22;16337;59.536;13.468;2022-12-07T00:12:02;-4.70;99.90
29341;DHT22;16337;59.536;13.468;2022-12-07T00:14:27;-4.80;99.90
29341;DHT22;16337;59.536;13.468;2022-12-07T00:16:53;-4.80;99.90
29341;DHT22;16337;59.536;13.468;2022-12-07T00:19:19;-4.80;99.90
29341;DHT22;16337;59.536;13.468;2022-12-07T00:21:45;-4.80;99.90
29341;DHT22;16337;59.536;13.468;2022-12-07T00:24:11;-4.80;99.90
29341;DHT22;16337;59.536;13.468;2022-12-07T00:26:39;-4.90;99.90
29341;DHT22;16337;59.536;13.468;2022-12-07T00:29:18;-4.90;99.90
29341;DHT22;16337;59.536;13.468;2022-12-07T00:31:44;-5.00;99.90
29341;DHT22;16337;59.536;13.468;2022-12-07T00:34:21;-5.00;99.90
29341;DHT22;16337;59.536;13.468;2022-12-07T00:36:47;-5.00;99.90
29341;DHT22;16337;59.536;13.468;2022-12-07T00:39:13;-4.90;99.90
29341;DHT22;16337;59.536;13.468;2022-12-07T00:41:39;-4.80;99.90
29341;DHT22;16337;59.536;13.468;2022-12-07T00:44:05;-4.80;99.90
29341;DHT22;16337;59.536;13.468;2022-12-07T00:46:31;-4.70;99.90
29341;DHT22;16337;59.536;13.468;2022-12-07T00:48:57;-4.70;99.90
29341;DHT22;16337;59.536;13.468;2022-12-07T00:51:24;-4.60;99.90
29341;DHT22;16337;59.536;13.468;2022-12-07T00:53:51;-4.60;99.90
29341;DHT22;16337;59.536;13.468;2022-12-07T00:56:19;-4.50;99.90
29341;DHT22;16337;59.536;13.468;2022-12-07T00:59:12;-4.30;99.90
29341;DHT22;16337;59.536;13.468;2022-12-07T01:01:39;-4.30;99.90
29341;DHT22;16337;59.536;13.468;2022-12-07T01:04:05;-4.30;99.90
29341;DHT22;16337;59.536;13.468;2022-12-07T01:06:31;-4.20;99.90
29341;DHT22;16337;59.536;13.468;2022-12-07T01:08:57;-4.20;99.90
29341;DHT22;16337;59.536;13.468;2022-12-07T01:11:25;-4.20;99.90
29341;DHT22;16337;59.536;13.468;2022-12-07T01:13:53;-4.20;99.90
29341;DHT22;16337;59.536;13.468;2022-12-07T01:16:20;-4.20;99.90
29341;DHT22;16337;59.536;13.468;2022-12-07T01:18:49;-4.20;99.90
29341;DHT22;16337;59.536;13.468;2022-12-07T01:21:16;-4.20;99.90
29341;DHT22;16337;59.536;13.468;2022-12-07T01:23:42;-4.20;99.90
29341;DHT22;16337;59.536;13.468;2022-12-07T01:26:11;-4.30;99.90
29341;DHT22;16337;59.536;13.468;2022-12-07T01:28:37;-4.20;99.90
29341;DHT22;16337;59.536;13.468;2022-12-07T01:31:11;-4.30;99.90
29341;DHT22;16337;59.536;13.468;2022-12-07T01:33:40;-4.30;99.90
29341;DHT22;16337;59.536;13.468;2022-12-07T01:36:11;-4.50;99.90
29341;DHT22;16337;59.536;13.468;2022-12-07T01:38:38;-4.50;99.90
29341;DHT22;16337;59.536;13.468;2022-12-07T01:41:04;-4.60;99.90
29341;DHT22;16337;59.536;13.468;2022-12-07T01:43:31;-4.60;99.90
29341;DHT22;16337;59.536;13.468;2022-12-07T01:45:57;-4.50;99.90
29341;DHT22;16337;59.536;13.468;2022-12-07T01:48:31;-4.60;99.90
29341;DHT22;16337;59.536;13.468;2022-12-07T01:51:01;-4.60;99.90
29341;DHT22;16337;59.536;13.468;2022-12-07T01:53:30;-4.70;99.90
29341;DHT22;16337;59.536;13.468;2022-12-07T01:55:56;-4.70;99.90
29341;DHT22;16337;59.536;13.468;2022-12-07T01:58:23;-4.60;99.90
29341;DHT22;16337;59.536;13.468;2022-12-07T02:00:49;-4.60;99.90
29341;DHT22;16337;59.536;13.468;2022-12-07T02:03:30;-4.60;99.90
29341;DHT22;16337;59.536;13.468;2022-12-07T02:05:57;-4.50;99.90
29341;DHT22;16337;59.536;13.468;2022-12-07T02:08:24;-4.40;99.90
29341;DHT22;16337;59.536;13.468;2022-12-07T02:10:50;-4.40;99.90
29341;DHT22;16337;59.536;13.468;2022-12-07T02:13:21;-4.40;99.90
29341;DHT22;16337;59.536;13.468;2022-12-07T02:18:58;-4.40;99.90
29341;DHT22;16337;59.536;13.468;2022-12-07T02:24:53;-4.40;99.90
29341;DHT22;16337;59.536;13.468;2022-12-07T02:27:50;-4.40;99.90
29341;DHT22;16337;59.536;13.468;2022-12-07T02:30:20;-4.40;99.90
29341;DHT22;16337;59.536;13.468;2022-12-07T02:32:59;-4.50;99.90
29341;DHT22;16337;59.536;13.468;2022-12-07T02:35:44;-4.50;99.90
29341;DHT22;16337;59.536;13.468;2022-12-07T02:40:44;-4.60;99.90
29341;DHT22;16337;59.536;13.468;2022-12-07T02:43:19;-4.60;99.90
29341;DHT22;16337;59.536;13.468;2022-12-07T02:45:47;-4.70;99.90
29341;DHT22;16337;59.536;13.468;2022-12-07T02:48:15;-4.70;99.90
29341;DHT22;16337;59.536;13.468;2022-12-07T02:50:49;-4.80;99.90
29341;DHT22;16337;59.536;13.468;2022-12-07T02:53:35;-4.80;99.90
29341;DHT22;16337;59.536;13.468;2022-12-07T02:56:37;-4.80;99.90
29341;DHT22;16337;59.536;13.468;2022-12-07T03:10:01;-5.00;99.90
29341;DHT22;16337;59.536;13.468;2022-12-07T03:15:51;-5.00;99.90
29341;DHT22;16337;59.536;13.468;2022-12-07T03:18:22;-5.00;99.90
29341;DHT22;16337;59.536;13.468;2022-12-07T03:20:50;-5.00;99.90
29341;DHT22;16337;59.536;13.468;2022-12-07T03:23:18;-5.00;99.90
29341;DHT22;16337;59.536;13.468;2022-12-07T03:25:50;-5.00;99.90
29341;DHT22;16337;59.536;13.468;2022-12-07T03:28:19;-5.10;99.90
29341;DHT22;16337;59.536;13.468;2022-12-07T03:30:57;-5.10;99.90
29341;DHT22;16337;59.536;13.468;2022-12-07T03:33:27;-5.20;99.90
29341;DHT22;16337;59.536;13.468;2022-12-07T03:38:50;-5.20;99.90
29341;DHT22;16337;59.536;13.468;2022-12-07T03:41:30;-5.10;99.90
29341;DHT22;16337;59.536;13.468;2022-12-07T03:43:57;-5.10;99.90
29341;DHT22;16337;59.536;13.468;2022-12-07T03:54:55;-5.20;99.90
29341;DHT22;16337;59.536;13.468;2022-12-07T03:57:23;-5.20;99.90
29341;DHT22;16337;59.536;13.468;2022-12-07T03:59:50;-5.30;99.90
29341;DHT22;16337;59.536;13.468;2022-12-07T04:02:16;-5.30;99.90
29341;DHT22;16337;59.536;13.468;2022-12-07T04:04:42;-5.30;99.90
29341;DHT22;16337;59.536;13.468;2022-12-07T04:07:08;-5.40;99.90
29341;DHT22;16337;59.536;13.468;2022-12-07T04:09:34;-5.40;99.90
29341;DHT22;16337;59.536;13.468;2022-12-07T04:12:00;-5.40;99.90
29341;DHT22;16337;59.536;13.468;2022-12-07T04:14:26;-5.40;99.90
29341;DHT22;16337;59.536;13.468;2022-12-07T04:16:54;-5.40;99.90
29341;DHT22;16337;59.536;13.468;2022-12-07T04:19:24;-5.40;99.90
29341;DHT22;16337;59.536;13.468;2022-12-07T04:21:50;-5.40;99.90
29341;DHT22;16337;59.536;13.468;2022-12-07T04:24:16;-5.40;99.90
29341;DHT22;16337;59.536;13.468;2022-12-07T04:26:43;-5.50;99.90
29341;DHT22;16337;59.536;13.468;2022-12-07T04:29:09;-5.50;99.90
29341;DHT22;16337;59.536;13.468;2022-12-07T04:31:36;-5.60;99.90
29341;DHT22;16337;59.536;13.468;2022-12-07T04:34:02;-5.60;99.90
29341;DHT22;16337;59.536;13.468;2022-12-07T04:36:28;-5.60;99.90
29341;DHT22;16337;59.536;13.468;2022-12-07T04:38:54;-5.60;99.90
29341;DHT22;16337;59.536;13.468;2022-12-07T04:41:21;-5.70;99.90
29341;DHT22;16337;59.536;13.468;2022-12-07T04:43:57;-5.60;99.90
29341;DHT22;16337;59.536;13.468;2022-12-07T04:46:23;-5.70;99.90
29341;DHT22;16337;59.536;13.468;2022-12-07T04:48:50;-5.70;99.90
29341;DHT22;16337;59.536;13.468;2022-12-07T04:51:20;-5.80;99.90
29341;DHT22;16337;59.536;13.468;2022-12-07T04:53:47;-5.80;99.90
29341;DHT22;16337;59.536;13.468;2022-12-07T04:56:13;-5.80;99.90
29341;DHT22;16337;59.536;13.468;2022-12-07T04:58:39;-5.80;99.90
29341;DHT22;16337;59.536;13.468;2022-12-07T05:01:06;-5.80;99.90
29341;DHT22;16337;59.536;13.468;2022-12-07T05:03:31;-5.80;99.90
29341;DHT22;16337;59.536;13.468;2022-12-07T05:05:57;-5.80;99.90
29341;DHT22;16337;59.536;13.468;2022-12-07T05:08:23;-5.90;99.90
29341;DHT22;16337;59.536;13.468;2022-12-07T05:10:49;-6.00;99.90
29341;DHT22;16337;59.536;13.468;2022-12-07T05:13:15;-6.10;99.90
29341;DHT22;16337;59.536;13.468;2022-12-07T05:15:41;-6.20;99.90
29341;DHT22;16337;59.536;13.468;2022-12-07T05:18:09;-6.30;99.90
29341;DHT22;16337;59.536;13.468;2022-12-07T05:20:37;-6.40;99.90
29341;DHT22;16337;59.536;13.468;2022-12-07T05:23:03;-6.50;99.90
29341;DHT22;16337;59.536;13.468;2022-12-07T05:25:28;-6.50;99.90
29341;DHT22;16337;59.536;13.468;2022-12-07T05:27:55;-6.60;99.90
29341;DHT22;16337;59.536;13.468;2022-12-07T05:30:22;-6.60;99.90
29341;DHT22;16337;59.536;13.468;2022-12-07T05:32:48;-6.60;99.90
29341;DHT22;16337;59.536;13.468;2022-12-07T05:35:14;-6.60;99.90
29341;DHT22;16337;59.536;13.468;2022-12-07T05:37:39;-6.60;99.90
29341;DHT22;16337;59.536;13.468;2022-12-07T05:40:06;-6.60;99.90
29341;DHT22;16337;59.536;13.468;2022-12-07T05:42:32;-6.70;99.90
29341;DHT22;16337;59.536;13.468;2022-12-07T05:44:58;-6.70;99.90
29341;DHT22;16337;59.536;13.468;2022-12-07T05:47:23;-6.80;99.90
29341;DHT22;16337;59.536;13.468;2022-12-07T05:49:49;-6.80;99.90
29341;DHT22;16337;59.536;13.468;2022-12-07T05:52:14;-6.90;99.90
29341;DHT22;16337;59.536;13.468;2022-12-07T05:54:40;-6.90;99.90
29341;DHT22;16337;59.536;13.468;2022-12-07T05:57:06;-6.90;99.90
29341;DHT22;16337;59.536;13.468;2022-12-07T05:59:32;-6.90;99.90
29341;DHT22;16337;59.536;13.468;2022-12-07T06:02:07;-7.00;99.90
29341;DHT22;16337;59.536;13.468;2022-12-07T06:04:41;-7.00;99.90
29341;DHT22;16337;59.536;13.468;2022-12-07T06:07:08;-7.00;99.90
29341;DHT22;16337;59.536;13.468;2022-12-07T06:09:35;-7.10;99.90
29341;DHT22;16337;59.536;13.468;2022-12-07T06:12:01;-7.20;99.90
29341;DHT22;16337;59.536;13.468;2022-12-07T06:14:46;-7.30;99.90
29341;DHT22;16337;59.536;13.468;2022-12-07T06:17:12;-7.40;99.90
29341;DHT22;16337;59.536;13.468;2022-12-07T06:19:38;-7.50;99.90
29341;DHT22;16337;59.536;13.468;2022-12-07T06:22:04;-7.60;99.90
29341;DHT22;16337;59.536;13.468;2022-12-07T06:24:30;-7.60;99.90
29341;DHT22;16337;59.536;13.468;2022-12-07T06:26:56;-7.70;99.90
29341;DHT22;16337;59.536;13.468;2022-12-07T06:29:22;-7.90;99.90
29341;DHT22;16337;59.536;13.468;2022-12-07T06:31:48;-7.90;99.90
29341;DHT22;16337;59.536;13.468;2022-12-07T06:34:16;-7.90;99.90
29341;DHT22;16337;59.536;13.468;2022-12-07T06:36:42;-8.00;99.90
29341;DHT22;16337;59.536;13.468;2022-12-07T06:39:09;-8.00;99.90
29341;DHT22;16337;59.536;13.468;2022-12-07T06:41:38;-8.00;99.90
29341;DHT22;16337;59.536;13.468;2022-12-07T06:44:05;-8.10;99.90
29341;DHT22;16337;59.536;13.468;2022-12-07T06:46:32;-8.10;99.90
29341;DHT22;16337;59.536;13.468;2022-12-07T06:48:58;-8.10;99.90
29341;DHT22;16337;59.536;13.468;2022-12-07T06:51:23;-8.10;99.90
29341;DHT22;16337;59.536;13.468;2022-12-07T06:53:49;-8.10;99.90
29341;DHT22;16337;59.536;13.468;2022-12-07T06:56:15;-8.20;99.90
29341;DHT22;16337;59.536;13.468;2022-12-07T06:58:41;-8.30;99.90
29341;DHT22;16337;59.536;13.468;2022-12-07T07:01:11;-8.30;99.90
29341;DHT22;16337;59.536;13.468;2022-12-07T07:03:37;-8.30;99.90
29341;DHT22;16337;59.536;13.468;2022-12-07T07:06:04;-8.40;99.90
29341;DHT22;16337;59.536;13.468;2022-12-07T07:08:29;-8.30;99.90
29341;DHT22;16337;59.536;13.468;2022-12-07T07:10:56;-8.30;99.90
29341;DHT22;16337;59.536;13.468;2022-12-07T07:13:21;-8.40;99.90
29341;DHT22;16337;59.536;13.468;2022-12-07T07:15:47;-8.40;99.90
29341;DHT22;16337;59.536;13.468;2022-12-07T07:18:13;-8.50;99.90
29341;DHT22;16337;59.536;13.468;2022-12-07T07:20:38;-8.50;99.90
29341;DHT22;16337;59.536;13.468;2022-12-07T07:23:05;-8.50;99.90
29341;DHT22;16337;59.536;13.468;2022-12-07T07:25:31;-8.50;99.90
29341;DHT22;16337;59.536;13.468;2022-12-07T07:27:56;-8.40;99.90
29341;DHT22;16337;59.536;13.468;2022-12-07T07:30:22;-8.40;99.90
29341;DHT22;16337;59.536;13.468;2022-12-07T07:32:48;-8.40;99.90
29341;DHT22;16337;59.536;13.468;2022-12-07T07:35:14;-8.40;99.90
29341;DHT22;16337;59.536;13.468;2022-12-07T07:37:40;-8.50;99.90
29341;DHT22;16337;59.536;13.468;2022-12-07T07:40:07;-8.50;99.90
29341;DHT22;16337;59.536;13.468;2022-12-07T07:42:33;-8.60;99.90
29341;DHT22;16337;59.536;13.468;2022-12-07T07:44:59;-8.60;99.90
29341;DHT22;16337;59.536;13.468;2022-12-07T07:47:24;-8.70;99.90
29341;DHT22;16337;59.536;13.468;2022-12-07T07:49:50;-8.70;99.90
29341;DHT22;16337;59.536;13.468;2022-12-07T07:52:15;-8.70;99.90
29341;DHT22;16337;59.536;13.468;2022-12-07T07:54:41;-8.70;99.90
29341;DHT22;16337;59.536;13.468;2022-12-07T07:57:07;-8.80;99.90
29341;DHT22;16337;59.536;13.468;2022-12-07T07:59:32;-8.70;99.90
29341;DHT22;16337;59.536;13.468;2022-12-07T08:01:58;-8.70;99.90
29341;DHT22;16337;59.536;13.468;2022-12-07T08:04:24;-8.70;99.90
29341;DHT22;16337;59.536;13.468;2022-12-07T08:06:49;-8.70;99.90
29341;DHT22;16337;59.536;13.468;2022-12-07T08:09:15;-8.70;99.90
29341;DHT22;16337;59.536;13.468;2022-12-07T08:11:40;-8.70;99.90
29341;DHT22;16337;59.536;13.468;2022-12-07T08:14:06;-8.70;99.90
29341;DHT22;16337;59.536;13.468;2022-12-07T08:16:32;-8.80;99.90
29341;DHT22;16337;59.536;13.468;2022-12-07T08:18:57;-8.80;99.90
29341;DHT22;16337;59.536;13.468;2022-12-07T08:21:23;-8.80;99.90
29341;DHT22;16337;59.536;13.468;2022-12-07T08:23:49;-8.80;99.90
29341;DHT22;16337;59.536;13.468;2022-12-07T08:26:16;-8.80;99.90
29341;DHT22;16337;59.536;13.468;2022-12-07T08:28:43;-8.80;99.90
29341;DHT22;16337;59.536;13.468;2022-12-07T08:31:15;-8.80;99.90
29341;DHT22;16337;59.536;13.468;2022-12-07T08:33:41;-8.80;99.90
29341;DHT22;16337;59.536;13.468;2022-12-07T08:36:09;-8.90;99.90
29341;DHT22;16337;59.536;13.468;2022-12-07T08:38:36;-8.90;99.90
29341;DHT22;16337;59.536;13.468;2022-12-07T08:41:02;-8.90;99.90
29341;DHT22;16337;59.536;13.468;2022-12-07T08:43:28;-8.90;99.90
29341;DHT22;16337;59.536;13.468;2022-12-07T08:46:13;-8.80;99.90
29341;DHT22;16337;59.536;13.468;2022-12-07T08:48:53;-8.80;99.90
29341;DHT22;16337;59.536;13.468;2022-12-07T08:51:21;-8.80;99.90
29341;DHT22;16337;59.536;13.468;2022-12-07T08:53:47;-8.80;99.90
29341;DHT22;16337;59.536;13.468;2022-12-07T08:56:13;-8.80;99.90
29341;DHT22;16337;59.536;13.468;2022-12-07T08:58:39;-8.90;99.90
29341;DHT22;16337;59.536;13.468;2022-12-07T09:01:05;-8.90;99.90
29341;DHT22;16337;59.536;13.468;2022-12-07T09:03:31;-8.80;99.90
29341;DHT22;16337;59.536;13.468;2022-12-07T09:05:58;-8.80;99.90
29341;DHT22;16337;59.536;13.468;2022-12-07T09:08:31;-8.70;99.90
29341;DHT22;16337;59.536;13.468;2022-12-07T09:10:58;-8.70;99.90
29341;DHT22;16337;59.536;13.468;2022-12-07T09:13:24;-8.70;99.90
29341;DHT22;16337;59.536;13.468;2022-12-07T09:15:49;-8.70;99.90
29341;DHT22;16337;59.536;13.468;2022-12-07T09:18:15;-8.70;99.90
29341;DHT22;16337;59.536;13.468;2022-12-07T09:20:40;-8.70;99.90
29341;DHT22;16337;59.536;13.468;2022-12-07T09:23:07;-8.70;99.90
29341;DHT22;16337;59.536;13.468;2022-12-07T09:25:33;-8.70;99.90
29341;DHT22;16337;59.536;13.468;2022-12-07T09:28:00;-8.60;99.90
29341;DHT22;16337;59.536;13.468;2022-12-07T09:30:27;-8.60;99.90
29341;DHT22;16337;59.536;13.468;2022-12-07T09:32:54;-8.50;99.90
29341;DHT22;16337;59.536;13.468;2022-12-07T09:35:20;-8.50;99.90
29341;DHT22;16337;59.536;13.468;2022-12-07T09:37:46;-8.50;99.90
29341;DHT22;16337;59.536;13.468;2022-12-07T09:40:13;-8.60;99.90
29341;DHT22;16337;59.536;13.468;2022-12-07T09:42:42;-8.50;99.90
29341;DHT22;16337;59.536;13.468;2022-12-07T09:45:19;-8.50;99.90
29341;DHT22;16337;59.536;13.468;2022-12-07T09:47:46;-8.50;99.90
29341;DHT22;16337;59.536;13.468;2022-12-07T09:50:15;-8.40;99.90
29341;DHT22;16337;59.536;13.468;2022-12-07T09:52:43;-8.50;99.90
29341;DHT22;16337;59.536;13.468;2022-12-07T09:55:16;-8.50;99.90
29341;DHT22;16337;59.536;13.468;2022-12-07T09:57:43;-8.50;99.90
29341;DHT22;16337;59.536;13.468;2022-12-07T10:05:38;-8.40;99.90
29341;DHT22;16337;59.536;13.468;2022-12-07T10:08:05;-8.40;99.90
29341;DHT22;16337;59.536;13.468;2022-12-07T10:10:34;-8.40;99.90
29341;DHT22;16337;59.536;13.468;2022-12-07T10:15:57;-8.40;99.90
29341;DHT22;16337;59.536;13.468;2022-12-07T10:21:05;-8.30;99.90
29341;DHT22;16337;59.536;13.468;2022-12-07T10:23:33;-8.30;99.90
29341;DHT22;16337;59.536;13.468;2022-12-07T10:25:59;-8.20;99.90
29341;DHT22;16337;59.536;13.468;2022-12-07T10:28:34;-8.20;99.90
29341;DHT22;16337;59.536;13.468;2022-12-07T10:31:03;-8.10;99.90
29341;DHT22;16337;59.536;13.468;2022-12-07T10:37:43;-7.90;99.90
29341;DHT22;16337;59.536;13.468;2022-12-07T10:40:34;-7.80;99.90
29341;DHT22;16337;59.536;13.468;2022-12-07T10:56:45;-7.80;99.90
29341;DHT22;16337;59.536;13.468;2022-12-07T11:01:48;-7.80;99.90
29341;DHT22;16337;59.536;13.468;2022-12-07T11:04:40;-7.70;99.90
29341;DHT22;16337;59.536;13.468;2022-12-07T11:10:10;-7.70;99.90
29341;DHT22;16337;59.536;13.468;2022-12-07T11:15:28;-7.70;99.90
29341;DHT22;16337;59.536;13.468;2022-12-07T11:18:40;-7.60;99.90
29341;DHT22;16337;59.536;13.468;2022-12-07T11:21:27;-7.30;99.90
29341;DHT22;16337;59.536;13.468;2022-12-07T11:37:02;-7.10;99.90
29341;DHT22;16337;59.536;13.468;2022-12-07T11:39:37;-7.10;99.90
29341;DHT22;16337;59.536;13.468;2022-12-07T11:42:09;-7.20;99.90
29341;DHT22;16337;59.536;13.468;2022-12-07T11:44:53;-7.20;99.90
29341;DHT22;16337;59.536;13.468;2022-12-07T11:47:35;-7.30;99.90
29341;DHT22;16337;59.536;13.468;2022-12-07T11:52:58;-7.40;99.90
29341;DHT22;16337;59.536;13.468;2022-12-07T11:55:52;-7.30;99.90
29341;DHT22;16337;59.536;13.468;2022-12-07T12:03:47;-7.10;99.90
29341;DHT22;16337;59.536;13.468;2022-12-07T12:06:14;-7.00;99.90
29341;DHT22;16337;59.536;13.468;2022-12-07T12:08:46;-7.00;99.90
29341;DHT22;16337;59.536;13.468;2022-12-07T12:22:19;-7.00;99.90
29341;DHT22;16337;59.536;13.468;2022-12-07T12:24:49;-7.00;99.90
29341;DHT22;16337;59.536;13.468;2022-12-07T12:29:54;-7.10;99.90
29341;DHT22;16337;59.536;13.468;2022-12-07T12:32:54;-7.10;99.90
29341;DHT22;16337;59.536;13.468;2022-12-07T12:37:54;-7.30;99.90
29341;DHT22;16337;59.536;13.468;2022-12-07T12:42:49;-7.40;99.90
29341;DHT22;16337;59.536;13.468;2022-12-07T12:45:27;-7.40;99.90
29341;DHT22;16337;59.536;13.468;2022-12-07T12:58:36;-7.30;99.90
29341;DHT22;16337;59.536;13.468;2022-12-07T13:03:56;-7.40;99.90
29341;DHT22;16337;59.536;13.468;2022-12-07T13:08:51;-7.50;99.90
29341;DHT22;16337;59.536;13.468;2022-12-07T13:11:25;-7.50;99.90
29341;DHT22;16337;59.536;13.468;2022-12-07T13:16:57;-7.50;99.90
29341;DHT22;16337;59.536;13.468;2022-12-07T13:22:50;-7.70;99.90
29341;DHT22;16337;59.536;13.468;2022-12-07T13:27:57;-7.70;99.90
29341;DHT22;16337;59.536;13.468;2022-12-07T13:30:23;-7.70;99.90
29341;DHT22;16337;59.536;13.468;2022-12-07T13:32:58;-7.80;99.90
29341;DHT22;16337;59.536;13.468;2022-12-07T13:37:56;-7.90;99.90
29341;DHT22;16337;59.536;13.468;2022-12-07T13:40:23;-7.90;99.90
29341;DHT22;16337;59.536;13.468;2022-12-07T13:42:57;-7.90;99.90
29341;DHT22;16337;59.536;13.468;2022-12-07T13:45:26;-7.90;99.90
29341;DHT22;16337;59.536;13.468;2022-12-07T13:48:31;-7.90;99.90
29341;DHT22;16337;59.536;13.468;2022-12-07T13:51:00;-8.00;99.90
29341;DHT22;16337;59.536;13.468;2022-12-07T13:53:27;-8.00;99.90
29341;DHT22;16337;59.536;13.468;2022-12-07T13:56:00;-8.10;99.90
29341;DHT22;16337;59.536;13.468;2022-12-07T13:58:29;-8.10;99.90
29341;DHT22;16337;59.536;13.468;2022-12-07T14:00:56;-8.20;99.90
29341;DHT22;16337;59.536;13.468;2022-12-07T14:03:34;-8.20;99.90
29341;DHT22;16337;59.536;13.468;2022-12-07T14:06:25;-8.30;99.90
29341;DHT22;16337;59.536;13.468;2022-12-07T14:09:07;-8.30;99.90
29341;DHT22;16337;59.536;13.468;2022-12-07T14:11:32;-8.40;99.90
29341;DHT22;16337;59.536;13.468;2022-12-07T14:14:01;-8.40;99.90
29341;DHT22;16337;59.536;13.468;2022-12-07T14:16:33;-8.40;99.90
29341;DHT22;16337;59.536;13.468;2022-12-07T14:19:02;-8.40;99.90
29341;DHT22;16337;59.536;13.468;2022-12-07T14:21:30;-8.50;99.90
29341;DHT22;16337;59.536;13.468;2022-12-07T14:24:16;-8.50;99.90
29341;DHT22;16337;59.536;13.468;2022-12-07T14:26:44;-8.60;99.90
29341;DHT22;16337;59.536;13.468;2022-12-07T14:29:30;-8.60;99.90
29341;DHT22;16337;59.536;13.468;2022-12-07T14:31:58;-8.70;99.90
29341;DHT22;16337;59.536;13.468;2022-12-07T14:34:30;-8.60;99.90
29341;DHT22;16337;59.536;13.468;2022-12-07T14:36:55;-8.70;99.90
29341;DHT22;16337;59.536;13.468;2022-12-07T14:39:21;-8.70;99.90
29341;DHT22;16337;59.536;13.468;2022-12-07T14:41:47;-8.70;99.90
29341;DHT22;16337;59.536;13.468;2022-12-07T14:44:20;-8.80;99.90
29341;DHT22;16337;59.536;13.468;2022-12-07T14:46:50;-8.90;99.90
29341;DHT22;16337;59.536;13.468;2022-12-07T14:49:16;-8.80;99.90
29341;DHT22;16337;59.536;13.468;2022-12-07T14:51:44;-8.80;99.90
29341;DHT22;16337;59.536;13.468;2022-12-07T14:54:17;-8.90;99.90
29341;DHT22;16337;59.536;13.468;2022-12-07T14:56:44;-8.90;99.90
29341;DHT22;16337;59.536;13.468;2022-12-07T14:59:11;-9.00;99.90
29341;DHT22;16337;59.536;13.468;2022-12-07T15:01:37;-9.00;99.90
29341;DHT22;16337;59.536;13.468;2022-12-07T15:04:03;-9.10;99.90
29341;DHT22;16337;59.536;13.468;2022-12-07T15:06:29;-9.10;99.90
29341;DHT22;16337;59.536;13.468;2022-12-07T15:08:54;-9.20;99.90
29341;DHT22;16337;59.536;13.468;2022-12-07T15:11:20;-9.20;99.90
29341;DHT22;16337;59.536;13.468;2022-12-07T15:13:46;-9.20;99.90
29341;DHT22;16337;59.536;13.468;2022-12-07T15:16:30;-9.30;99.90
29341;DHT22;16337;59.536;13.468;2022-12-07T15:18:56;-9.30;99.90
29341;DHT22;16337;59.536;13.468;2022-12-07T15:21:22;-9.30;99.90
29341;DHT22;16337;59.536;13.468;2022-12-07T15:23:47;-9.40;99.90
29341;DHT22;16337;59.536;13.468;2022-12-07T15:26:13;-9.40;99.90
29341;DHT22;16337;59.536;13.468;2022-12-07T15:28:39;-9.40;99.90
29341;DHT22;16337;59.536;13.468;2022-12-07T15:31:11;-9.40;99.90
29341;DHT22;16337;59.536;13.468;2022-12-07T15:33:37;-9.50;99.90
29341;DHT22;16337;59.536;13.468;2022-12-07T15:36:03;-9.50;99.90
29341;DHT22;16337;59.536;13.468;2022-12-07T15:38:28;-9.50;99.90
29341;DHT22;16337;59.536;13.468;2022-12-07T15:40:56;-9.60;99.90
29341;DHT22;16337;59.536;13.468;2022-12-07T15:43:22;-9.50;99.90
29341;DHT22;16337;59.536;13.468;2022-12-07T15:46:06;-9.50;99.90
29341;DHT22;16337;59.536;13.468;2022-12-07T15:48:32;-9.50;99.90
29341;DHT22;16337;59.536;13.468;2022-12-07T15:51:05;-9.50;99.90
29341;DHT22;16337;59.536;13.468;2022-12-07T15:53:32;-9.50;99.90
29341;DHT22;16337;59.536;13.468;2022-12-07T15:55:59;-9.50;99.90
29341;DHT22;16337;59.536;13.468;2022-12-07T15:58:25;-9.50;99.90
29341;DHT22;16337;59.536;13.468;2022-12-07T16:00:59;-9.50;99.90
29341;DHT22;16337;59.536;13.468;2022-12-07T16:03:36;-9.60;99.90
29341;DHT22;16337;59.536;13.468;2022-12-07T16:06:04;-9.60;99.90
29341;DHT22;16337;59.536;13.468;2022-12-07T16:08:30;-9.70;99.90
29341;DHT22;16337;59.536;13.468;2022-12-07T16:10:56;-9.80;99.90
29341;DHT22;16337;59.536;13.468;2022-12-07T16:13:22;-9.80;99.90
29341;DHT22;16337;59.536;13.468;2022-12-07T16:15:47;-9.90;99.90
29341;DHT22;16337;59.536;13.468;2022-12-07T16:18:13;-9.90;99.90
29341;DHT22;16337;59.536;13.468;2022-12-07T16:20:39;-9.90;99.90
29341;DHT22;16337;59.536;13.468;2022-12-07T16:23:05;-9.90;99.90
29341;DHT22;16337;59.536;13.468;2022-12-07T16:25:31;-9.90;99.90
29341;DHT22;16337;59.536;13.468;2022-12-07T16:27:56;-9.90;99.90
29341;DHT22;16337;59.536;13.468;2022-12-07T16:30:22;-9.90;99.90
29341;DHT22;16337;59.536;13.468;2022-12-07T16:32:48;-9.80;99.90
29341;DHT22;16337;59.536;13.468;2022-12-07T16:35:14;-9.70;99.90
29341;DHT22;16337;59.536;13.468;2022-12-07T16:37:42;-9.80;99.90
29341;DHT22;16337;59.536;13.468;2022-12-07T16:40:08;-9.80;99.90
29341;DHT22;16337;59.536;13.468;2022-12-07T16:42:34;-9.80;99.90
29341;DHT22;16337;59.536;13.468;2022-12-07T16:45:02;-9.70;99.90
29341;DHT22;16337;59.536;13.468;2022-12-07T16:47:29;-9.80;99.90
29341;DHT22;16337;59.536;13.468;2022-12-07T16:49:54;-9.90;99.90
29341;DHT22;16337;59.536;13.468;2022-12-07T16:52:21;-9.90;99.90
29341;DHT22;16337;59.536;13.468;2022-12-07T16:54:47;-10.00;99.90
29341;DHT22;16337;59.536;13.468;2022-12-07T16:57:14;-10.00;99.90
29341;DHT22;16337;59.536;13.468;2022-12-07T16:59:41;-10.00;99.90
29341;DHT22;16337;59.536;13.468;2022-12-07T17:02:08;-10.10;99.90
29341;DHT22;16337;59.536;13.468;2022-12-07T17:04:35;-10.10;99.90
29341;DHT22;16337;59.536;13.468;2022-12-07T17:07:01;-10.10;99.90
29341;DHT22;16337;59.536;13.468;2022-12-07T17:09:27;-10.10;99.90
29341;DHT22;16337;59.536;13.468;2022-12-07T17:11:53;-10.10;99.90
29341;DHT22;16337;59.536;13.468;2022-12-07T17:14:19;-10.20;99.90
29341;DHT22;16337;59.536;13.468;2022-12-07T17:17:06;-10.20;99.90
29341;DHT22;16337;59.536;13.468;2022-12-07T17:19:31;-10.20;99.90
29341;DHT22;16337;59.536;13.468;2022-12-07T17:22:00;-10.30;99.90
29341;DHT22;16337;59.536;13.468;2022-12-07T17:24:26;-10.30;99.90
29341;DHT22;16337;59.536;13.468;2022-12-07T17:27:03;-10.30;99.90
29341;DHT22;16337;59.536;13.468;2022-12-07T17:29:29;-10.30;99.90
29341;DHT22;16337;59.536;13.468;2022-12-07T17:32:05;-10.40;99.90
29341;DHT22;16337;59.536;13.468;2022-12-07T17:34:40;-10.40;99.90
29341;DHT22;16337;59.536;13.468;2022-12-07T17:37:06;-10.40;99.90
29341;DHT22;16337;59.536;13.468;2022-12-07T17:39:31;-10.40;99.90
29341;DHT22;16337;59.536;13.468;2022-12-07T17:41:57;-10.50;99.90
29341;DHT22;16337;59.536;13.468;2022-12-07T17:44:41;-10.50;99.90
29341;DHT22;16337;59.536;13.468;2022-12-07T17:47:08;-10.50;99.90